createdAt,value
2018-01-15T00:01:33.116Z,102024.04
2018-01-15T00:04:01.509Z,102017.95
2018-01-15T00:06:29.852Z,102006.03
2018-01-15T00:08:58.329Z,102003.46
2018-01-15T00:11:26.714Z,101996.18
2018-01-15T00:13:55.111Z,101998.38
2018-01-15T00:16:23.464Z,101999.70
2018-01-15T00:18:51.796Z,102003.50
2018-01-15T00:21:20.152Z,102002.92
2018-01-15T00:23:48.528Z,101990.59
2018-01-15T00:26:17.445Z,101986.97
2018-01-15T00:28:45.803Z,101972.75
2018-01-15T00:31:14.164Z,101964.52
2018-01-15T00:33:42.552Z,101960.91
2018-01-15T00:36:10.892Z,101959.86
2018-01-15T00:38:39.300Z,101969.27
2018-01-15T00:41:07.664Z,101966.23
2018-01-15T00:43:36.032Z,101967.62
2018-01-15T00:46:04.600Z,101968.42
2018-01-15T00:48:33.723Z,101976.64
2018-01-15T00:51:02.884Z,101978.03
2018-01-15T00:53:32.000Z,101976.06
2018-01-15T00:56:00.364Z,101975.80
2018-01-15T00:58:29.480Z,101974.72
2018-01-15T01:00:57.851Z,101968.47
2018-01-15T01:03:26.240Z,101972.04
2018-01-15T01:05:54.592Z,101978.23
2018-01-15T01:08:23.752Z,101979.08
2018-01-15T01:10:52.096Z,101968.02
2018-01-15T01:13:20.477Z,101963.55
2018-01-15T01:15:49.247Z,101958.59
2018-01-15T01:18:17.632Z,101958.80
2018-01-15T01:20:46.021Z,101945.67
2018-01-15T01:23:15.531Z,101950.18
2018-01-15T01:25:43.900Z,101951.52
2018-01-15T01:28:12.235Z,101944.42
2018-01-15T01:30:40.635Z,101936.02
2018-01-15T01:33:08.979Z,101940.76
2018-01-15T01:35:37.361Z,101932.44
2018-01-15T01:38:05.748Z,101933.56
2018-01-15T01:40:34.124Z,101928.73
2018-01-15T01:43:02.499Z,101934.38
2018-01-15T01:45:30.856Z,101931.37
2018-01-15T01:48:00.033Z,101937.53
2018-01-15T01:50:28.443Z,101929.28
2018-01-15T01:52:56.783Z,101923.88
2018-01-15T01:55:26.259Z,101922.48
2018-01-15T01:57:54.659Z,101919.72
2018-01-15T02:00:23.011Z,101916.16
2018-01-15T02:02:52.159Z,101909.42
2018-01-15T02:05:20.509Z,101912.25
2018-01-15T02:07:49.663Z,101901.05
2018-01-15T02:10:18.031Z,101901.26
2018-01-15T02:12:46.414Z,101893.09
2018-01-15T02:15:14.774Z,101888.45
2018-01-15T02:17:43.171Z,101884.55
2018-01-15T02:20:12.351Z,101880.15
2018-01-15T02:22:40.751Z,101870.18
2018-01-15T02:25:09.511Z,101871.02
2018-01-15T02:27:38.639Z,101873.60
2018-01-15T02:30:07.051Z,101876.50
2018-01-15T02:32:35.399Z,101875.45
2018-01-15T02:35:04.551Z,101880.70
2018-01-15T02:37:32.907Z,101880.09
2018-01-15T02:40:01.308Z,101886.56
2018-01-15T02:42:29.719Z,101879.72
2018-01-15T02:44:58.075Z,101871.41
2018-01-15T02:47:26.451Z,101849.13
2018-01-15T02:49:55.223Z,101853.96
2018-01-15T02:52:23.606Z,101845.67
2018-01-15T02:54:51.991Z,101854.92
2018-01-15T02:57:20.362Z,101855.60
2018-01-15T02:59:48.709Z,101848.81
2018-01-15T03:02:17.103Z,101840.95
2018-01-15T03:04:45.474Z,101844.23
2018-01-15T03:07:14.639Z,101837.56
2018-01-15T03:09:42.982Z,101827.19
2018-01-15T03:12:11.350Z,101822.47
2018-01-15T03:14:39.707Z,101808.13
2018-01-15T03:17:08.047Z,101795.77
2018-01-15T03:19:36.826Z,101793.33
2018-01-15T03:22:05.176Z,101793.66
2018-01-15T03:24:33.599Z,101787.34
2018-01-15T03:27:01.938Z,101792.11
2018-01-15T03:29:30.282Z,101791.06
2018-01-15T03:31:58.659Z,101793.89
2018-01-15T03:34:27.437Z,101788.02
2018-01-15T03:36:55.778Z,101792.81
2018-01-15T03:39:25.310Z,101782.35
2018-01-15T03:41:54.426Z,101780.16
2018-01-15T03:44:22.802Z,101782.59
2018-01-15T03:46:51.138Z,101780.77
2018-01-15T03:49:19.486Z,101781.86
2018-01-15T03:51:47.854Z,101773.38
2018-01-15T03:54:16.234Z,101773.63
2018-01-15T03:56:44.626Z,101772.63
2018-01-15T03:59:12.978Z,101769.49
2018-01-15T04:01:41.369Z,101767.11
2018-01-15T04:04:09.718Z,101765.76
2018-01-15T04:06:38.094Z,101759.96
2018-01-15T04:09:06.457Z,101757.20
2018-01-15T04:11:34.838Z,101745.35
2018-01-15T04:14:03.946Z,101735.14
2018-01-15T04:16:32.334Z,101729.73
2018-01-15T04:19:01.454Z,101732.27
2018-01-15T04:21:29.854Z,101724.02
2018-01-15T04:23:58.197Z,101715.72
2018-01-15T04:26:26.534Z,101707.66
2018-01-15T04:28:55.694Z,101696.37
2018-01-15T04:31:24.113Z,101695.42
2018-01-15T04:33:53.261Z,101696.77
2018-01-15T04:36:21.638Z,101695.52
2018-01-15T04:38:50.021Z,101701.81
2018-01-15T04:41:18.762Z,101705.00
2018-01-15T04:43:47.149Z,101706.05
2018-01-15T04:46:15.513Z,101706.05
2018-01-15T04:48:44.629Z,101697.28
2018-01-15T04:51:13.021Z,101691.81
2018-01-15T04:53:41.375Z,101693.61
2018-01-15T04:56:09.838Z,101683.92
2018-01-15T04:58:38.185Z,101679.44
2018-01-15T05:01:07.297Z,101684.30
2018-01-15T05:03:35.657Z,101675.84
2018-01-15T05:06:04.776Z,101677.02
2018-01-15T05:08:33.148Z,101675.30
2018-01-15T05:11:01.481Z,101673.38
2018-01-15T05:13:29.873Z,101670.94
2018-01-15T05:15:58.249Z,101669.75
2018-01-15T05:18:27.734Z,101661.67
2018-01-15T05:20:56.129Z,101653.22
2018-01-15T05:23:24.493Z,101650.23
2018-01-15T05:25:52.844Z,101649.14
2018-01-15T05:28:21.988Z,101648.08
2018-01-15T05:30:50.337Z,101637.86
2018-01-15T05:33:18.673Z,101645.78
2018-01-15T05:35:47.853Z,101641.53
2018-01-15T05:38:16.256Z,101632.34
2018-01-15T05:40:45.754Z,101624.56
2018-01-15T05:43:14.949Z,101620.72
2018-01-15T05:45:43.337Z,101620.43
2018-01-15T05:48:12.449Z,101623.91
2018-01-15T05:50:41.245Z,101623.06
2018-01-15T05:53:09.640Z,101624.68
2018-01-15T05:55:37.990Z,101621.27
2018-01-15T05:58:06.353Z,101620.14
2018-01-15T06:00:35.110Z,101627.58
2018-01-15T06:03:03.502Z,101620.13
2018-01-15T06:05:32.593Z,101619.81
2018-01-15T06:08:00.958Z,101615.84
2018-01-15T06:10:29.697Z,101608.44
2018-01-15T06:12:58.087Z,101604.72
2018-01-15T06:15:26.868Z,101598.96
2018-01-15T06:17:56.576Z,101594.83
2018-01-15T06:20:26.299Z,101592.92
2018-01-15T06:22:54.681Z,101592.56
2018-01-15T06:25:23.066Z,101593.17
2018-01-15T06:27:51.466Z,101585.27
2018-01-15T06:30:19.869Z,101589.89
2018-01-15T06:32:49.033Z,101584.19
2018-01-15T06:35:17.801Z,101580.43
2018-01-15T06:37:46.900Z,101586.09
2018-01-15T06:40:15.285Z,101584.64
2018-01-15T06:42:43.621Z,101576.27
2018-01-15T06:45:12.750Z,101571.41
2018-01-15T06:47:41.077Z,101573.15
2018-01-15T06:50:09.454Z,101566.72
2018-01-15T06:52:37.841Z,101571.73
2018-01-15T06:55:06.936Z,101575.30
2018-01-15T06:57:35.298Z,101575.38
2018-01-15T07:00:03.709Z,101575.25
2018-01-15T07:02:32.093Z,101572.34
2018-01-15T07:05:00.507Z,101569.27
2018-01-15T07:07:28.913Z,101575.38
2018-01-15T07:09:57.305Z,101568.86
2018-01-15T07:12:26.433Z,101567.44
2018-01-15T07:14:54.782Z,101564.12
2018-01-15T07:17:23.961Z,101560.04
2018-01-15T07:19:52.299Z,101563.03
2018-01-15T07:22:20.644Z,101563.48
2018-01-15T07:24:49.005Z,101551.56
2018-01-15T07:27:17.355Z,101547.61
2018-01-15T07:29:46.522Z,101556.30
2018-01-15T07:32:14.937Z,101562.00
2018-01-15T07:34:43.281Z,101560.73
2018-01-15T07:37:12.384Z,101566.22
2018-01-15T07:39:41.930Z,101562.77
2018-01-15T07:42:10.282Z,101564.34
2018-01-15T07:44:39.033Z,101556.88
2018-01-15T07:47:07.409Z,101554.01
2018-01-15T07:49:37.125Z,101550.62
2018-01-15T07:52:05.513Z,101558.38
2018-01-15T07:54:33.895Z,101548.63
2018-01-15T07:57:02.277Z,101543.03
2018-01-15T07:59:30.663Z,101549.07
2018-01-15T08:01:58.997Z,101548.41
2018-01-15T08:04:28.155Z,101546.33
2018-01-15T08:06:56.514Z,101539.79
2018-01-15T08:09:24.890Z,101529.28
2018-01-15T08:11:53.653Z,101530.23
2018-01-15T08:14:22.195Z,101526.30
2018-01-15T08:16:50.581Z,101519.68
2018-01-15T08:19:18.941Z,101513.91
2018-01-15T08:21:47.288Z,101508.50
2018-01-15T08:24:15.677Z,101503.20
2018-01-15T08:26:44.021Z,101491.88
2018-01-15T08:29:12.425Z,101481.37
2018-01-15T08:31:40.861Z,101488.00
2018-01-15T08:34:09.215Z,101478.81
2018-01-15T08:36:37.577Z,101480.11
2018-01-15T08:39:05.985Z,101469.88
2018-01-15T08:41:35.099Z,101473.62
2018-01-15T08:44:04.260Z,101467.14
2018-01-15T08:46:32.601Z,101465.64
2018-01-15T08:49:00.935Z,101460.59
2018-01-15T08:51:29.321Z,101456.41
2018-01-15T08:53:58.451Z,101458.01
2018-01-15T08:56:26.809Z,101452.18
2018-01-15T08:58:55.213Z,101453.27
2018-01-15T09:01:24.676Z,101450.13
2018-01-15T09:03:53.921Z,101444.83
2018-01-15T09:06:23.034Z,101441.44
2018-01-15T09:08:51.372Z,101433.34
2018-01-15T09:11:19.736Z,101431.50
2018-01-15T09:13:48.064Z,101418.64
2018-01-15T09:16:16.420Z,101418.20
2018-01-15T09:18:45.512Z,101414.06
2018-01-15T09:21:14.265Z,101413.86
2018-01-15T09:23:43.372Z,101408.85
2018-01-15T09:26:11.733Z,101397.77
2018-01-15T09:28:40.836Z,101392.44
2018-01-15T09:31:09.996Z,101387.76
2018-01-15T09:33:38.376Z,101382.34
2018-01-15T09:36:06.724Z,101385.47
2018-01-15T09:38:35.146Z,101387.36
2018-01-15T09:41:03.500Z,101385.97
2018-01-15T09:43:31.825Z,101382.58
2018-01-15T09:46:00.201Z,101366.13
2018-01-15T09:48:29.433Z,101371.00
2018-01-15T09:50:57.828Z,101364.11
2018-01-15T09:53:26.153Z,101363.42
2018-01-15T09:55:55.281Z,101352.05
2018-01-15T09:58:23.651Z,101348.75
2018-01-15T10:00:51.997Z,101347.75
2018-01-15T10:03:21.148Z,101341.30
2018-01-15T10:05:50.256Z,101345.78
2018-01-15T10:08:18.632Z,101341.13
2018-01-15T10:10:47.351Z,101344.66
2018-01-15T10:13:16.481Z,101337.48
2018-01-15T10:15:44.807Z,101337.50
2018-01-15T10:18:13.163Z,101332.19
2018-01-15T10:20:41.495Z,101335.27
2018-01-15T10:23:09.869Z,101324.09
2018-01-15T10:25:38.969Z,101317.80
2018-01-15T10:28:07.363Z,101327.92
2018-01-15T10:30:35.704Z,101309.77
2018-01-15T10:33:04.091Z,101308.55
2018-01-15T10:35:33.227Z,101301.16
2018-01-15T10:38:01.553Z,101297.22
2018-01-15T10:40:29.919Z,101286.41
2018-01-15T10:42:58.252Z,101279.17
2018-01-15T10:45:26.625Z,101272.95
2018-01-15T10:47:56.104Z,101270.67
2018-01-15T10:50:25.226Z,101256.41
2018-01-15T10:52:53.564Z,101251.59
2018-01-15T10:55:21.938Z,101246.13
2018-01-15T10:57:50.282Z,101252.14
2018-01-15T11:00:18.743Z,101237.53
2018-01-15T11:02:47.086Z,101236.59
2018-01-15T11:05:16.196Z,101232.86
2018-01-15T11:07:44.572Z,101227.94
2018-01-15T11:10:13.790Z,101225.34
2018-01-15T11:12:42.117Z,101215.34
2018-01-15T11:15:10.483Z,101207.06
2018-01-15T11:17:39.275Z,101204.98
2018-01-15T11:20:07.643Z,101202.90
2018-01-15T11:22:36.019Z,101191.56
2018-01-15T11:25:05.118Z,101178.44
2018-01-15T11:27:33.455Z,101166.28
2018-01-15T11:30:01.830Z,101165.42
2018-01-15T11:32:30.190Z,101163.20
2018-01-15T11:34:59.310Z,101161.16
2018-01-15T11:37:27.698Z,101163.24
2018-01-15T11:39:56.047Z,101155.23
2018-01-15T11:42:24.410Z,101147.77
2018-01-15T11:44:53.530Z,101142.63
2018-01-15T11:47:21.931Z,101135.21
2018-01-15T11:49:50.288Z,101119.13
2018-01-15T11:52:18.694Z,101105.91
2018-01-15T11:54:47.030Z,101101.23
2018-01-15T11:57:16.122Z,101096.77
2018-01-15T11:59:44.910Z,101093.77
2018-01-15T12:02:14.002Z,101093.70
2018-01-15T12:04:43.158Z,101088.06
2018-01-15T12:07:11.530Z,101080.61
2018-01-15T12:09:39.918Z,101073.74
2018-01-15T12:12:08.653Z,101068.04
2018-01-15T12:14:37.003Z,101062.80
2018-01-15T12:17:06.184Z,101058.52
2018-01-15T12:19:35.129Z,101054.58
2018-01-15T12:22:03.486Z,101051.14
2018-01-15T12:24:31.871Z,101055.04
2018-01-15T12:27:00.226Z,101048.54
2018-01-15T12:29:28.597Z,101057.20
2018-01-15T12:31:56.930Z,101051.75
2018-01-15T12:34:25.247Z,101047.42
2018-01-15T12:36:53.614Z,101041.05
2018-01-15T12:39:21.990Z,101030.84
2018-01-15T12:41:50.358Z,101027.37
2018-01-15T12:44:18.698Z,101019.11
2018-01-15T12:46:47.046Z,101014.86
2018-01-15T12:49:15.411Z,101010.98
2018-01-15T12:51:45.051Z,101004.86
2018-01-15T12:54:19.839Z,100989.11
2018-01-15T12:56:48.170Z,101001.23
2018-01-15T12:59:16.569Z,100996.44
2018-01-15T13:01:44.898Z,100995.61
2018-01-15T13:04:14.038Z,100987.98
2018-01-15T13:07:01.864Z,100983.13
2018-01-15T13:09:30.236Z,100973.03
2018-01-15T13:11:59.353Z,100969.53
2018-01-15T13:14:27.742Z,100959.44
2018-01-15T13:16:56.086Z,100953.66
2018-01-15T13:19:24.457Z,100932.50
2018-01-15T13:21:52.802Z,100880.63
2018-01-15T13:24:21.966Z,100931.38
2018-01-15T13:26:50.842Z,100923.14
2018-01-15T13:29:19.223Z,100917.78
2018-01-15T13:31:47.589Z,100912.97
2018-01-15T13:34:15.931Z,100906.89
2018-01-15T13:36:45.087Z,100903.39
2018-01-15T13:39:13.441Z,100894.06
2018-01-15T13:41:41.811Z,100890.20
2018-01-15T13:44:10.181Z,100887.59
2018-01-15T13:46:38.519Z,100877.13
2018-01-15T13:49:06.878Z,100876.69
2018-01-15T13:51:35.226Z,100871.50
2018-01-15T13:54:03.600Z,100870.00
2018-01-15T13:56:31.946Z,100867.68
2018-01-15T13:59:00.322Z,100870.71
2018-01-15T14:01:28.798Z,100867.22
2018-01-15T14:03:57.137Z,100856.26
2018-01-15T14:06:25.486Z,100846.78
2018-01-15T14:08:55.389Z,100834.11
2018-01-15T14:11:24.877Z,100844.04
2018-01-15T14:13:54.710Z,100840.19
2018-01-15T14:16:23.830Z,100827.95
2018-01-15T14:18:52.162Z,100831.73
2018-01-15T14:21:21.334Z,100819.10
2018-01-15T14:23:49.658Z,100822.52
2018-01-15T14:26:18.038Z,100820.31
2018-01-15T14:28:46.473Z,100812.94
2018-01-15T14:31:14.797Z,100810.66
2018-01-15T14:33:43.174Z,100807.16
2018-01-15T14:36:11.542Z,100817.02
2018-01-15T14:38:40.667Z,100808.59
2018-01-15T14:41:08.985Z,100802.39
2018-01-15T14:43:37.365Z,100801.38
2018-01-15T14:46:07.081Z,100800.87
2018-01-15T14:48:36.221Z,100783.34
2018-01-15T14:51:05.362Z,100774.21
2018-01-15T14:53:33.757Z,100765.93
2018-01-15T14:56:02.137Z,100748.86
2018-01-15T14:58:30.465Z,100736.80
2018-01-15T15:00:58.915Z,100732.45
2018-01-15T15:03:27.631Z,100720.31
2018-01-15T15:05:55.973Z,100728.95
2018-01-15T15:08:25.109Z,100739.30
2018-01-15T15:10:53.446Z,100740.48
2018-01-15T15:13:22.593Z,100734.98
2018-01-15T15:15:51.014Z,100738.66
2018-01-15T15:18:19.717Z,100736.22
2018-01-15T15:20:48.837Z,100735.77
2018-01-15T15:23:17.207Z,100724.70
2018-01-15T15:25:45.542Z,100722.38
2018-01-15T15:28:13.925Z,100722.48
2018-01-15T15:30:42.262Z,100717.60
2018-01-15T15:33:11.401Z,100707.07
2018-01-15T15:35:40.529Z,100703.72
2018-01-15T15:38:09.766Z,100697.73
2018-01-15T15:40:38.101Z,100682.86
2018-01-15T15:43:06.448Z,100665.90
2018-01-15T15:45:34.840Z,100667.95
2018-01-15T15:48:03.971Z,100663.94
2018-01-15T15:50:33.107Z,100657.42
2018-01-15T15:53:02.259Z,100650.75
2018-01-15T15:55:32.392Z,100638.92
2018-01-15T15:58:01.430Z,100634.63
2018-01-15T16:00:30.586Z,100622.92
2018-01-15T16:02:59.020Z,100622.55
2018-01-15T16:05:28.202Z,100624.41
2018-01-15T16:07:56.574Z,100617.80
2018-01-15T16:10:25.718Z,100608.56
2018-01-15T16:12:54.989Z,100599.72
2018-01-15T16:15:23.396Z,100590.83
2018-01-15T16:17:54.105Z,100592.92
2018-01-15T16:20:22.573Z,100582.59
2018-01-15T16:23:00.241Z,100587.12
2018-01-15T16:25:29.011Z,100565.34
2018-01-15T16:27:58.534Z,100562.20
2018-01-15T16:30:28.380Z,100549.65
2018-01-15T16:32:57.529Z,100551.88
2018-01-15T16:35:25.902Z,100544.80
2018-01-15T16:37:54.696Z,100536.07
2018-01-15T16:40:23.028Z,100528.89
2018-01-15T16:42:51.819Z,100521.09
2018-01-15T16:45:20.210Z,100512.71
2018-01-15T16:47:49.384Z,100498.88
2018-01-15T16:50:23.240Z,100492.92
2018-01-15T16:52:51.614Z,100482.33
2018-01-15T16:55:20.357Z,100474.77
2018-01-15T16:57:48.800Z,100470.56
2018-01-15T17:00:17.169Z,100458.73
2018-01-15T17:02:46.369Z,100459.53
2018-01-15T17:05:14.732Z,100451.84
2018-01-15T17:07:43.106Z,100435.50
2018-01-15T17:10:11.474Z,100435.59
2018-01-15T17:12:40.540Z,100422.56
2018-01-15T17:15:09.744Z,100413.58
2018-01-15T17:17:38.432Z,100408.83
2018-01-15T17:20:07.270Z,100395.17
2018-01-15T17:22:36.049Z,100408.24
2018-01-15T17:25:04.787Z,100397.39
2018-01-15T17:27:33.943Z,100389.10
2018-01-15T17:30:02.368Z,100383.80
2018-01-15T17:32:30.795Z,100383.20
2018-01-15T17:34:59.605Z,100368.19
2018-01-15T17:37:28.421Z,100371.64
2018-01-15T17:40:04.400Z,100369.05
2018-01-15T17:42:32.759Z,100368.89
2018-01-15T17:45:01.873Z,100363.09
2018-01-15T17:47:30.343Z,100354.56
2018-01-15T17:49:59.491Z,100349.75
2018-01-15T17:52:27.939Z,100347.61
2018-01-15T17:54:56.311Z,100359.22
2018-01-15T17:57:26.032Z,100342.30
2018-01-15T17:59:55.160Z,100335.58
2018-01-15T18:02:24.409Z,100323.95
2018-01-15T18:04:53.800Z,100330.12
2018-01-15T18:07:22.207Z,100320.06
2018-01-15T18:09:50.651Z,100330.05
2018-01-15T18:12:19.852Z,100316.56
2018-01-15T18:14:48.227Z,100317.93
2018-01-15T18:17:16.592Z,100298.20
2018-01-15T18:19:46.833Z,100289.52
2018-01-15T18:22:15.637Z,100279.56
2018-01-15T18:24:44.967Z,100275.30
2018-01-15T18:27:13.692Z,100272.25
2018-01-15T18:29:43.659Z,100265.36
2018-01-15T18:32:12.935Z,100266.34
2018-01-15T18:34:42.300Z,100268.11
2018-01-15T18:37:11.461Z,100248.98
2018-01-15T18:39:41.035Z,100223.27
2018-01-15T18:42:09.453Z,100221.45
2018-01-15T18:44:38.391Z,100222.30
2018-01-15T18:47:06.825Z,100206.70
2018-01-15T18:49:35.247Z,100204.94
2018-01-15T18:52:03.672Z,100209.72
2018-01-15T18:54:32.132Z,100209.31
2018-01-15T18:57:01.159Z,100210.38
2018-01-15T18:59:29.583Z,100209.67
2018-01-15T19:01:58.894Z,100207.60
2018-01-15T19:04:27.628Z,100199.94
2018-01-15T19:06:56.072Z,100193.53
2018-01-15T19:09:24.865Z,100193.57
2018-01-15T19:11:53.288Z,100185.83
2018-01-15T19:14:21.663Z,100184.22
2018-01-15T19:16:50.059Z,100176.02
2018-01-15T19:19:20.608Z,100171.69
2018-01-15T19:21:49.947Z,100171.31
2018-01-15T19:24:18.544Z,100176.95
2018-01-15T19:26:50.485Z,100174.85
2018-01-15T19:29:39.967Z,100155.29
2018-01-15T19:32:09.726Z,100155.34
2018-01-15T19:34:42.200Z,100145.39
2018-01-15T19:37:11.303Z,100135.00
2018-01-15T19:39:41.405Z,100130.25
2018-01-15T19:42:10.630Z,100129.89
2018-01-15T19:44:48.359Z,100127.70
2018-01-15T19:47:23.075Z,100128.97
2018-01-15T19:49:57.468Z,100115.05
2018-01-15T19:52:32.319Z,100119.84
2018-01-15T19:55:07.855Z,100108.13
2018-01-15T20:00:48.407Z,100091.61
2018-01-15T20:03:23.096Z,100093.80
2018-01-15T20:05:57.260Z,100094.67
2018-01-15T20:08:31.182Z,100090.75
2018-01-15T20:11:02.041Z,100082.09
2018-01-15T20:13:30.595Z,100078.19
2018-01-15T20:15:59.059Z,100062.52
2018-01-15T20:18:28.163Z,100057.73
2018-01-15T20:20:56.505Z,100050.38
2018-01-15T20:23:24.996Z,100042.58
2018-01-15T20:25:54.147Z,100032.16
2018-01-15T20:28:23.839Z,100020.00
2018-01-15T20:31:02.415Z,100006.08
2018-01-15T20:33:31.543Z,100002.13
2018-01-15T20:36:00.856Z,99975.11
2018-01-15T20:38:29.647Z,99975.61
2018-01-15T20:40:58.750Z,99975.17
2018-01-15T20:43:27.915Z,99962.53
2018-01-15T20:45:57.320Z,99962.09
2018-01-15T20:48:25.806Z,99958.23
2018-01-15T20:50:54.203Z,99946.47
2018-01-15T20:53:22.978Z,99932.13
2018-01-15T20:55:51.363Z,99926.05
2018-01-15T20:58:21.062Z,99935.22
2018-01-15T21:00:50.290Z,99922.98
2018-01-15T21:03:18.782Z,99919.98
2018-01-15T21:05:48.078Z,99904.33
2018-01-15T21:08:17.154Z,99906.94
2018-01-15T21:10:45.507Z,99907.80
2018-01-15T21:13:16.154Z,99896.52
2018-01-15T21:15:45.526Z,99892.59
2018-01-15T21:18:13.930Z,99891.20
2018-01-15T21:20:43.430Z,99894.22
2018-01-15T21:23:11.999Z,99880.79
2018-01-15T21:25:41.842Z,99872.96
2018-01-15T21:28:10.970Z,99856.02
2018-01-15T21:30:39.318Z,99852.97
2018-01-15T21:33:11.170Z,99839.95
2018-01-15T21:38:17.912Z,99832.97
2018-01-15T21:40:46.780Z,99812.13
2018-01-15T21:43:15.168Z,99812.15
2018-01-15T21:45:43.978Z,99807.35
2018-01-15T21:48:14.258Z,99809.97
2018-01-15T21:50:43.435Z,99804.73
2018-01-15T21:53:12.282Z,99792.98
2018-01-15T21:55:41.492Z,99776.48
2018-01-15T21:58:11.954Z,99758.21
2018-01-15T22:00:40.327Z,99734.72
2018-01-15T22:03:08.659Z,99739.95
2018-01-15T22:05:37.718Z,99739.05
2018-01-15T22:08:06.089Z,99728.20
2018-01-15T22:10:35.259Z,99726.91
2018-01-15T22:13:03.587Z,99720.78
2018-01-15T22:15:31.996Z,99726.45
2018-01-15T22:18:00.777Z,99729.92
2018-01-15T22:20:29.881Z,99713.84
2018-01-15T22:22:59.082Z,99708.19
2018-01-15T22:25:27.487Z,99697.32
2018-01-15T22:27:55.835Z,99696.05
2018-01-15T22:30:25.036Z,99693.85
2018-01-15T22:32:54.178Z,99682.14
2018-01-15T22:35:22.518Z,99678.67
2018-01-15T22:37:51.018Z,99663.89
2018-01-15T22:40:20.097Z,99663.48
2018-01-15T22:42:49.201Z,99661.72
2018-01-15T22:45:17.531Z,99660.44
2018-01-15T22:47:45.901Z,99657.84
2018-01-15T22:50:14.255Z,99643.92
2018-01-15T22:52:42.635Z,99659.14
2018-01-15T22:55:11.006Z,99650.87
2018-01-15T22:57:39.341Z,99636.98
2018-01-15T23:00:08.480Z,99625.69
2018-01-15T23:02:36.865Z,99617.84
2018-01-15T23:05:05.226Z,99618.31
2018-01-15T23:07:33.607Z,99607.44
2018-01-15T23:10:02.770Z,99600.47
2018-01-15T23:12:32.109Z,99596.55
2018-01-15T23:15:00.445Z,99589.59
2018-01-15T23:17:29.585Z,99580.93
2018-01-15T23:19:57.975Z,99570.92
2018-01-15T23:22:26.353Z,99563.09
2018-01-15T23:24:54.697Z,99564.82
2018-01-15T23:27:23.017Z,99563.11
2018-01-15T23:29:51.441Z,99547.88
2018-01-15T23:32:19.832Z,99543.13
2018-01-15T23:34:48.197Z,99538.33
2018-01-15T23:37:17.333Z,99537.92
2018-01-15T23:39:45.673Z,99538.35
2018-01-15T23:42:14.033Z,99535.30
2018-01-15T23:44:43.233Z,99518.35
2018-01-15T23:47:12.341Z,99502.23
2018-01-15T23:49:40.721Z,99496.14
2018-01-15T23:52:09.089Z,99496.58
2018-01-15T23:54:38.997Z,99492.22
2018-01-15T23:57:08.104Z,99473.10
2018-01-15T23:59:37.257Z,99465.72
